Time;durP1;ratioP1;P1;durP2;ratioP2;P2;SDS_P1;SDS_P2;PMS_P1;PMS_P2;Temp;Humidity;BMP_temperature;BMP_pressure;BME280_temperature;BME280_humidity;BME280_pressure;Samples;Min_cycle;Max_cycle;Signal;HPM_P1;HPM_P2
2023/01/27 00:08:23;;;;;;;22.73;12.48;;;;;;;;;;20916652;28;20049;-62
2023/01/27 00:18:29;;;;;;;16.13;10.02;;;;;;;;;;20916484;28;20408;-66
2023/01/27 00:28:33;;;;;;;37.95;21.08;;;;;;;;;;20915572;28;20511;-65
2023/01/27 00:38:39;;;;;;;14.27;8.13;;;;;;;;;;20915834;28;20049;-59
2023/01/27 00:48:44;;;;;;;22.75;10.70;;;;;;;;;;20915870;28;20056;-64
2023/01/27 00:58:46;;;;;;;14.15;6.60;;;;;;;;;;20913642;28;20385;-67
2023/01/27 01:08:50;;;;;;;10.95;6.10;;;;;;;;;;20912696;28;20049;-60
2023/01/27 01:18:52;;;;;;;11.00;5.88;;;;;;;;;;20928738;28;20412;-61
2023/01/27 01:28:55;;;;;;;13.45;7.30;;;;;;;;;;20927641;28;20393;-58
2023/01/27 01:38:58;;;;;;;13.82;7.68;;;;;;;;;;20928158;28;20045;-67
2023/01/27 01:49:03;;;;;;;14.43;6.30;;;;;;;;;;20927832;28;20060;-61
2023/01/27 01:59:11;;;;;;;6.43;4.30;;;;;;;;;;20927771;28;20496;-67
2023/01/27 02:09:14;;;;;;;5.53;3.38;;;;;;;;;;20926045;28;20076;-64
2023/01/27 02:19:27;;;;;;;6.82;3.67;;;;;;;;;;20925988;28;20055;-63
2023/01/27 02:29:29;;;;;;;7.90;3.75;;;;;;;;;;20925148;28;20049;-63
2023/01/27 02:39:35;;;;;;;10.10;4.10;;;;;;;;;;20928440;28;20045;-66
2023/01/27 02:49:38;;;;;;;7.80;4.00;;;;;;;;;;20922595;28;20049;-63
2023/01/27 02:59:41;;;;;;;8.85;4.43;;;;;;;;;;20921751;28;20045;-62
2023/01/27 03:09:46;;;;;;;8.35;4.18;;;;;;;;;;20920451;28;20095;-59
2023/01/27 03:19:52;;;;;;;6.72;4.20;;;;;;;;;;20920303;28;20056;-61
2023/01/27 03:29:57;;;;;;;7.00;4.47;;;;;;;;;;20919848;28;20049;-63
2023/01/27 03:50:40;;;;;;;10.63;4.50;;;;;;;;;;20917146;28;20057;-63
2023/01/27 04:00:48;;;;;;;7.28;4.47;;;;;;;;;;20919355;28;20048;-63
2023/01/27 04:11:53;;;;;;;7.10;4.10;;;;;;;;;;20929508;28;20049;-65
2023/01/27 04:21:14;;;;;;;7.47;4.07;;;;;;;;;;20923769;28;20485;-62
2023/01/27 04:31:19;;;;;;;7.90;3.35;;;;;;;;;;20916439;28;20049;-68
2023/01/27 04:41:24;;;;;;;5.15;3.17;;;;;;;;;;20926096;28;20095;-64
2023/01/27 04:51:27;;;;;;;6.03;3.60;;;;;;;;;;20913580;28;20451;-59
2023/01/27 05:01:30;;;;;;;4.78;3.45;;;;;;;;;;20913946;28;20049;-64
2023/01/27 05:11:35;;;;;;;5.80;3.20;;;;;;;;;;20913918;28;20381;-67
2023/01/27 05:21:38;;;;;;;7.32;3.20;;;;;;;;;;20912564;28;20057;-65
2023/01/27 05:31:41;;;;;;;4.22;2.47;;;;;;;;;;20912964;28;20117;-63
2023/01/27 05:41:43;;;;;;;6.00;2.63;;;;;;;;;;20910643;28;20045;-62
2023/01/27 05:51:45;;;;;;;37.50;7.53;;;;;;;;;;20912107;28;20140;-65
2023/01/27 06:01:47;;;;;;;6.45;3.22;;;;;;;;;;20920297;28;20049;-67
2023/01/27 06:11:50;;;;;;;6.82;3.70;;;;;;;;;;20928981;28;20053;-64
2023/01/27 06:21:54;;;;;;;6.88;3.65;;;;;;;;;;20934908;28;20086;-60
2023/01/27 06:31:56;;;;;;;7.22;3.72;;;;;;;;;;20935324;28;20053;-62
2023/01/27 06:41:59;;;;;;;8.68;3.80;;;;;;;;;;20925052;28;20484;-59
2023/01/27 06:52:01;;;;;;;7.50;4.15;;;;;;;;;;20923177;28;20106;-64
2023/01/27 07:02:04;;;;;;;9.60;4.43;;;;;;;;;;20926757;28;20420;-67
2023/01/27 07:12:06;;;;;;;8.98;4.85;;;;;;;;;;20925920;28;20059;-58
2023/01/27 07:22:09;;;;;;;11.18;5.60;;;;;;;;;;20921880;28;20052;-59
2023/01/27 07:32:11;;;;;;;6.30;3.28;;;;;;;;;;20921634;28;20060;-61
2023/01/27 07:42:13;;;;;;;9.57;3.88;;;;;;;;;;20919080;28;20053;-63
2023/01/27 07:52:15;;;;;;;9.80;3.53;;;;;;;;;;20917205;28;20485;-59
2023/01/27 08:02:18;;;;;;;16.90;7.15;;;;;;;;;;20917570;28;20119;-68
2023/01/27 08:12:20;;;;;;;10.57;6.10;;;;;;;;;;20934257;28;20105;-59
2023/01/27 08:22:23;;;;;;;14.32;5.75;;;;;;;;;;20921149;28;20389;-60
2023/01/27 08:32:25;;;;;;;16.17;5.22;;;;;;;;;;20914785;28;20103;-67
2023/01/27 08:42:27;;;;;;;12.00;5.90;;;;;;;;;;20913394;28;20055;-59
2023/01/27 08:52:30;;;;;;;9.95;5.25;;;;;;;;;;20911282;28;20053;-60
2023/01/27 09:02:34;;;;;;;36.75;10.30;;;;;;;;;;20912411;28;20137;-60
2023/01/27 09:12:36;;;;;;;24.88;9.00;;;;;;;;;;20912292;28;20044;-59
2023/01/27 09:22:39;;;;;;;13.90;5.90;;;;;;;;;;20913878;28;20056;-59
2023/01/27 09:32:41;;;;;;;31.20;10.23;;;;;;;;;;20917360;28;20412;-60
2023/01/27 09:42:43;;;;;;;21.77;10.65;;;;;;;;;;20927947;28;20067;-60
2023/01/27 09:53:04;;;;;;;11.23;4.35;;;;;;;;;;20926442;28;20053;-67
2023/01/27 10:03:16;;;;;;;11.10;3.55;;;;;;;;;;20925911;28;20071;-58
2023/01/27 10:13:33;;;;;;;2.10;0.95;;;;;;;;;;20924409;28;20053;-67
2023/01/27 10:23:43;;;;;;;4.38;1.13;;;;;;;;;;20925621;28;20400;-60
2023/01/27 10:34:09;;;;;;;2.25;0.70;;;;;;;;;;20924147;28;20056;-60
2023/01/27 10:44:23;;;;;;;0.97;0.50;;;;;;;;;;20832324;28;20064;-60
2023/01/27 10:54:33;;;;;;;1.30;0.60;;;;;;;;;;20842547;28;20049;-63
2023/01/27 11:04:41;;;;;;;2.45;0.50;;;;;;;;;;20818552;28;20097;-57
2023/01/27 11:14:45;;;;;;;1.15;0.70;;;;;;;;;;20853633;28;20095;-58
2023/01/27 11:25:06;;;;;;;1.38;0.70;;;;;;;;;;20959003;28;20080;-61
2023/01/27 11:35:11;;;;;;;1.42;0.80;;;;;;;;;;20969049;28;20055;-65
2023/01/27 11:45:12;;;;;;;;;;;;;;;;;;20974942;28;20044;-56
2023/01/27 11:55:16;;;;;;;2.25;0.88;;;;;;;;;;20998770;28;20401;-55
2023/01/27 12:05:37;;;;;;;2.08;0.60;;;;;;;;;;20933932;28;20080;-56
2023/01/27 12:15:46;;;;;;;0.90;0.55;;;;;;;;;;20972998;28;20124;-56
2023/01/27 12:25:53;;;;;;;0.68;0.50;;;;;;;;;;20914363;28;20037;-57
2023/01/27 12:35:58;;;;;;;1.15;0.80;;;;;;;;;;20926798;28;20064;-58
2023/01/27 12:46:05;;;;;;;1.23;0.50;;;;;;;;;;20913282;28;20056;-56
2023/01/27 12:56:11;;;;;;;4.07;0.95;;;;;;;;;;20971048;28;20305;-57
2023/01/27 13:06:15;;;;;;;2.55;0.60;;;;;;;;;;20921534;28;20178;-58
2023/01/27 13:16:22;;;;;;;1.52;0.70;;;;;;;;;;20929107;28;20051;-55
2023/01/27 13:26:36;;;;;;;1.50;0.75;;;;;;;;;;20928959;28;20510;-57
2023/01/27 13:37:04;;;;;;;1.67;0.70;;;;;;;;;;20927442;28;20497;-55
2023/01/27 13:47:33;;;;;;;1.60;0.82;;;;;;;;;;20923274;28;20064;-55
2023/01/27 13:57:55;;;;;;;2.13;0.63;;;;;;;;;;20922981;28;20057;-57
2023/01/27 14:08:04;;;;;;;0.95;0.60;;;;;;;;;;20914447;28;20488;-56
2023/01/27 14:18:21;;;;;;;0.70;0.52;;;;;;;;;;20922943;28;20144;-59
2023/01/27 14:28:42;;;;;;;1.90;1.42;;;;;;;;;;20906746;28;20056;-63
2023/01/27 14:39:02;;;;;;;2.00;0.85;;;;;;;;;;20923621;28;20052;-60
2023/01/27 14:49:04;;;;;;;2.92;1.48;;;;;;;;;;20921530;28;20064;-60
2023/01/27 14:59:25;;;;;;;1.42;0.80;;;;;;;;;;20921899;28;20373;-61
2023/01/27 15:09:39;;;;;;;1.80;0.88;;;;;;;;;;20921283;28;20496;-62
2023/01/27 15:19:48;;;;;;;1.35;0.68;;;;;;;;;;20919254;28;20044;-64
2023/01/27 15:29:51;;;;;;;2.05;0.75;;;;;;;;;;20919467;28;20049;-60
2023/01/27 15:39:53;;;;;;;1.75;0.80;;;;;;;;;;20918245;28;20095;-59
2023/01/27 15:50:08;;;;;;;1.33;0.60;;;;;;;;;;20917954;28;20084;-56
2023/01/27 16:00:24;;;;;;;1.53;0.70;;;;;;;;;;20916347;28;20049;-60
2023/01/27 16:10:29;;;;;;;1.15;0.47;;;;;;;;;;20915342;28;20045;-63
2023/01/27 16:20:51;;;;;;;0.90;0.50;;;;;;;;;;20925693;28;20052;-55
2023/01/27 16:31:10;;;;;;;3.10;1.15;;;;;;;;;;20991758;28;20112;-62
2023/01/27 16:41:37;;;;;;;1.23;0.60;;;;;;;;;;20965112;28;20052;-66
2023/01/27 16:51:39;;;;;;;2.17;0.57;;;;;;;;;;20998608;28;20114;-66
2023/01/27 17:01:52;;;;;;;1.40;0.55;;;;;;;;;;20998098;28;20439;-61
2023/01/27 17:11:54;;;;;;;1.83;0.60;;;;;;;;;;20991444;28;20531;-67
2023/01/27 17:21:58;;;;;;;3.95;1.23;;;;;;;;;;20994789;28;20052;-70
2023/01/27 17:32:01;;;;;;;1.17;0.60;;;;;;;;;;20994401;28;20094;-63
2023/01/27 17:42:04;;;;;;;7.95;1.50;;;;;;;;;;20984442;28;20381;-62
2023/01/27 17:52:10;;;;;;;2.85;0.70;;;;;;;;;;20958990;28;20048;-58
2023/01/27 18:02:17;;;;;;;5.63;0.98;;;;;;;;;;21004399;28;20052;-65
2023/01/27 18:12:36;;;;;;;2.15;0.80;;;;;;;;;;20946169;28;20053;-55
2023/01/27 18:22:43;;;;;;;3.85;0.88;;;;;;;;;;20926618;28;20362;-64
2023/01/27 18:32:47;;;;;;;1.77;0.90;;;;;;;;;;21007891;28;20131;-55
2023/01/27 18:42:53;;;;;;;2.63;1.55;;;;;;;;;;20939989;28;20063;-67
2023/01/27 18:52:56;;;;;;;3.35;1.00;;;;;;;;;;20923183;28;20060;-67
2023/01/27 19:02:59;;;;;;;2.67;1.15;;;;;;;;;;20921873;28;20049;-60
2023/01/27 19:13:02;;;;;;;2.38;1.20;;;;;;;;;;20978875;28;20198;-59
2023/01/27 19:23:04;;;;;;;3.75;1.05;;;;;;;;;;21003254;28;20052;-56
2023/01/27 19:33:16;;;;;;;3.60;1.58;;;;;;;;;;21002369;28;20052;-60
2023/01/27 19:43:18;;;;;;;2.33;1.42;;;;;;;;;;21005651;28;20133;-57
2023/01/27 19:53:20;;;;;;;3.63;1.08;;;;;;;;;;20999659;28;20477;-56
2023/01/27 20:03:23;;;;;;;2.10;0.98;;;;;;;;;;20999380;28;20045;-58
2023/01/27 20:13:25;;;;;;;1.40;0.90;;;;;;;;;;20997977;28;20145;-56
2023/01/27 20:23:27;;;;;;;4.90;1.40;;;;;;;;;;20996416;28;20040;-56
2023/01/27 20:33:29;;;;;;;1.85;0.90;;;;;;;;;;20996789;28;20057;-56
2023/01/27 20:43:31;;;;;;;3.08;1.52;;;;;;;;;;20998327;28;20090;-58
2023/01/27 20:53:35;;;;;;;3.92;1.08;;;;;;;;;;20996210;28;20051;-56
2023/01/27 21:03:39;;;;;;;0.97;0.80;;;;;;;;;;20997256;28;20055;-55
2023/01/27 21:13:40;;;;;;;3.83;1.20;;;;;;;;;;20995482;28;20404;-55
2023/01/27 21:23:43;;;;;;;2.58;1.30;;;;;;;;;;20995064;28;20051;-57
2023/01/27 21:33:46;;;;;;;2.05;1.20;;;;;;;;;;21007593;28;20155;-55
2023/01/27 21:54:09;;;;;;;4.15;2.00;;;;;;;;;;21010379;28;20084;-57
2023/01/27 22:04:11;;;;;;;3.30;1.52;;;;;;;;;;21009757;28;20049;-57
2023/01/27 22:14:13;;;;;;;1.95;1.10;;;;;;;;;;21009404;28;20074;-57
2023/01/27 22:24:16;;;;;;;3.30;1.63;;;;;;;;;;21007490;28;20056;-59
2023/01/27 22:34:18;;;;;;;2.17;1.15;;;;;;;;;;21006417;28;20053;-56
2023/01/27 22:44:20;;;;;;;2.33;1.20;;;;;;;;;;21005537;28;20045;-55
2023/01/27 22:54:23;;;;;;;2.13;1.00;;;;;;;;;;21004770;28;20048;-56
2023/01/27 23:04:25;;;;;;;2.35;1.00;;;;;;;;;;21004930;28;20053;-56
2023/01/27 23:14:27;;;;;;;2.83;1.02;;;;;;;;;;21003321;28;20079;-55
2023/01/27 23:24:43;;;;;;;2.17;0.88;;;;;;;;;;21003917;28;20468;-56
2023/01/27 23:34:46;;;;;;;29.27;18.65;;;;;;;;;;21001695;28;20057;-55
2023/01/27 23:44:48;;;;;;;3.67;1.38;;;;;;;;;;21003027;28;20476;-56
2023/01/27 23:55:10;;;;;;;3.58;1.23;;;;;;;;;;21000068;28;20447;-57
